sensor_id;sensor_type;location;lat;lon;timestamp;temperature;humidity
42135;DHT22;28312;43.460;11.810;2024-02-21T07:04:34;4.20;59.70
42135;DHT22;28312;43.460;11.810;2024-02-21T07:08:38;4.50;59.50
42135;DHT22;28312;43.460;11.810;2024-02-21T07:12:42;5.30;59.20
42135;DHT22;28312;43.460;11.810;2024-02-21T07:16:47;6.20;59.00
42135;DHT22;28312;43.460;11.810;2024-02-21T07:20:52;7.10;58.70
42135;DHT22;28312;43.460;11.810;2024-02-21T07:24:55;8.10;58.00
42135;DHT22;28312;43.460;11.810;2024-02-21T07:28:59;9.10;57.70
42135;DHT22;28312;43.460;11.810;2024-02-21T07:33:03;10.20;57.00
42135;DHT22;28312;43.460;11.810;2024-02-21T07:37:06;11.30;56.30
42135;DHT22;28312;43.460;11.810;2024-02-21T07:41:10;12.30;55.50
42135;DHT22;28312;43.460;11.810;2024-02-21T07:45:13;13.30;54.70
42135;DHT22;28312;43.460;11.810;2024-02-21T07:49:17;14.20;54.10
42135;DHT22;28312;43.460;11.810;2024-02-21T07:53:20;14.70;53.50
42135;DHT22;28312;43.460;11.810;2024-02-21T07:57:24;15.20;53.10
42135;DHT22;28312;43.460;11.810;2024-02-21T08:01:28;15.80;52.80
42135;DHT22;28312;43.460;11.810;2024-02-21T08:05:34;16.20;52.60
42135;DHT22;28312;43.460;11.810;2024-02-21T08:09:40;16.70;52.10
42135;DHT22;28312;43.460;11.810;2024-02-21T08:13:43;17.20;51.40
42135;DHT22;28312;43.460;11.810;2024-02-21T08:17:47;17.60;51.30
42135;DHT22;28312;43.460;11.810;2024-02-21T08:21:50;17.90;50.80
42135;DHT22;28312;43.460;11.810;2024-02-21T08:25:55;18.40;50.80
42135;DHT22;28312;43.460;11.810;2024-02-21T08:29:59;19.10;50.20
42135;DHT22;28312;43.460;11.810;2024-02-21T08:34:03;19.70;49.50
42135;DHT22;28312;43.460;11.810;2024-02-21T08:38:07;20.10;49.00
42135;DHT22;28312;43.460;11.810;2024-02-21T08:42:11;20.60;48.80
42135;DHT22;28312;43.460;11.810;2024-02-21T08:46:14;21.20;48.10
42135;DHT22;28312;43.460;11.810;2024-02-21T08:50:19;21.70;47.70
42135;DHT22;28312;43.460;11.810;2024-02-21T08:54:31;22.20;47.10
42135;DHT22;28312;43.460;11.810;2024-02-21T08:58:37;22.40;47.00
42135;DHT22;28312;43.460;11.810;2024-02-21T09:02:41;22.80;46.70
42135;DHT22;28312;43.460;11.810;2024-02-21T09:06:48;23.20;46.10
42135;DHT22;28312;43.460;11.810;2024-02-21T09:10:52;23.30;45.90
42135;DHT22;28312;43.460;11.810;2024-02-21T09:14:56;23.40;45.60
42135;DHT22;28312;43.460;11.810;2024-02-21T09:19:00;23.30;45.30
42135;DHT22;28312;43.460;11.810;2024-02-21T09:23:05;23.20;45.50
42135;DHT22;28312;43.460;11.810;2024-02-21T09:27:09;23.50;45.40
42135;DHT22;28312;43.460;11.810;2024-02-21T09:31:13;23.80;45.10
42135;DHT22;28312;43.460;11.810;2024-02-21T09:35:16;24.10;44.70
42135;DHT22;28312;43.460;11.810;2024-02-21T09:39:20;24.10;44.40
42135;DHT22;28312;43.460;11.810;2024-02-21T09:43:23;24.40;44.20
42135;DHT22;28312;43.460;11.810;2024-02-21T09:48:10;24.60;43.90
42135;DHT22;28312;43.460;11.810;2024-02-21T09:52:08;25.00;43.70
42135;DHT22;28312;43.460;11.810;2024-02-21T09:56:12;25.40;43.40
42135;DHT22;28312;43.460;11.810;2024-02-21T10:00:17;25.60;43.30
42135;DHT22;28312;43.460;11.810;2024-02-21T10:04:25;25.90;43.00
42135;DHT22;28312;43.460;11.810;2024-02-21T10:08:29;26.20;42.70
42135;DHT22;28312;43.460;11.810;2024-02-21T10:12:32;26.40;42.20
42135;DHT22;28312;43.460;11.810;2024-02-21T10:16:36;26.40;42.10
42135;DHT22;28312;43.460;11.810;2024-02-21T10:20:40;26.60;41.70
42135;DHT22;28312;43.460;11.810;2024-02-21T10:24:44;26.80;41.70
42135;DHT22;28312;43.460;11.810;2024-02-21T10:28:48;27.10;41.20
42135;DHT22;28312;43.460;11.810;2024-02-21T10:32:55;27.20;40.80
42135;DHT22;28312;43.460;11.810;2024-02-21T10:37:01;27.30;40.80
42135;DHT22;28312;43.460;11.810;2024-02-21T10:41:05;27.30;40.70
42135;DHT22;28312;43.460;11.810;2024-02-21T10:45:09;27.50;40.90
42135;DHT22;28312;43.460;11.810;2024-02-21T10:49:24;27.50;40.00
42135;DHT22;28312;43.460;11.810;2024-02-21T10:57:57;27.40;39.90
42135;DHT22;28312;43.460;11.810;2024-02-21T11:02:00;27.20;39.20
42135;DHT22;28312;43.460;11.810;2024-02-21T11:06:05;27.00;39.60
42135;DHT22;28312;43.460;11.810;2024-02-21T11:10:22;27.10;39.70
42135;DHT22;28312;43.460;11.810;2024-02-21T11:14:27;27.50;39.70
42135;DHT22;28312;43.460;11.810;2024-02-21T11:18:31;27.50;38.70
42135;DHT22;28312;43.460;11.810;2024-02-21T11:22:44;27.10;38.60
42135;DHT22;28312;43.460;11.810;2024-02-21T11:26:49;27.00;39.20
42135;DHT22;28312;43.460;11.810;2024-02-21T11:30:52;26.60;39.30
42135;DHT22;28312;43.460;11.810;2024-02-21T11:35:02;26.70;39.30
42135;DHT22;28312;43.460;11.810;2024-02-21T11:39:11;26.40;38.50
42135;DHT22;28312;43.460;11.810;2024-02-21T11:43:43;25.90;38.30
42135;DHT22;28312;43.460;11.810;2024-02-21T11:47:47;25.60;38.80
42135;DHT22;28312;43.460;11.810;2024-02-21T11:52:03;25.70;38.90
42135;DHT22;28312;43.460;11.810;2024-02-21T11:56:09;26.10;38.80
42135;DHT22;28312;43.460;11.810;2024-02-21T12:00:18;26.60;38.60
42135;DHT22;28312;43.460;11.810;2024-02-21T12:04:25;26.60;37.80
42135;DHT22;28312;43.460;11.810;2024-02-21T12:08:49;26.60;38.00
42135;DHT22;28312;43.460;11.810;2024-02-21T12:12:53;26.80;38.00
42135;DHT22;28312;43.460;11.810;2024-02-21T12:17:03;26.90;37.70
42135;DHT22;28312;43.460;11.810;2024-02-21T12:21:10;26.90;36.40
42135;DHT22;28312;43.460;11.810;2024-02-21T12:25:17;26.50;37.30
42135;DHT22;28312;43.460;11.810;2024-02-21T12:29:23;26.50;37.50
42135;DHT22;28312;43.460;11.810;2024-02-21T12:33:30;26.20;37.60
42135;DHT22;28312;43.460;11.810;2024-02-21T12:37:34;26.20;37.50
42135;DHT22;28312;43.460;11.810;2024-02-21T12:41:42;26.20;37.80
42135;DHT22;28312;43.460;11.810;2024-02-21T12:45:47;26.30;37.50
42135;DHT22;28312;43.460;11.810;2024-02-21T12:49:52;26.20;37.30
42135;DHT22;28312;43.460;11.810;2024-02-21T12:53:56;26.10;37.40
42135;DHT22;28312;43.460;11.810;2024-02-21T12:58:03;25.80;37.00
42135;DHT22;28312;43.460;11.810;2024-02-21T13:02:10;25.60;36.80
42135;DHT22;28312;43.460;11.810;2024-02-21T13:06:14;25.30;36.90
42135;DHT22;28312;43.460;11.810;2024-02-21T13:10:19;25.10;37.00
42135;DHT22;28312;43.460;11.810;2024-02-21T13:14:23;24.90;37.00
42135;DHT22;28312;43.460;11.810;2024-02-21T13:18:27;25.00;36.90
42135;DHT22;28312;43.460;11.810;2024-02-21T13:22:31;25.00;36.70
42135;DHT22;28312;43.460;11.810;2024-02-21T13:26:35;24.90;36.70
42135;DHT22;28312;43.460;11.810;2024-02-21T13:30:39;24.90;36.70
42135;DHT22;28312;43.460;11.810;2024-02-21T13:34:42;25.10;36.60
42135;DHT22;28312;43.460;11.810;2024-02-21T13:38:46;25.30;36.30
42135;DHT22;28312;43.460;11.810;2024-02-21T13:42:50;25.30;35.90
42135;DHT22;28312;43.460;11.810;2024-02-21T13:46:54;25.10;36.00
42135;DHT22;28312;43.460;11.810;2024-02-21T13:50:58;25.10;35.90
42135;DHT22;28312;43.460;11.810;2024-02-21T13:55:01;25.00;35.90
42135;DHT22;28312;43.460;11.810;2024-02-21T13:59:06;24.90;36.20
42135;DHT22;28312;43.460;11.810;2024-02-21T14:03:10;25.10;35.90
42135;DHT22;28312;43.460;11.810;2024-02-21T14:07:14;24.60;35.70
42135;DHT22;28312;43.460;11.810;2024-02-21T14:11:17;24.30;35.90
42135;DHT22;28312;43.460;11.810;2024-02-21T14:15:21;24.10;36.00
42135;DHT22;28312;43.460;11.810;2024-02-21T14:19:25;24.10;36.20
42135;DHT22;28312;43.460;11.810;2024-02-21T14:23:29;24.20;36.30
42135;DHT22;28312;43.460;11.810;2024-02-21T14:27:32;24.30;36.10
42135;DHT22;28312;43.460;11.810;2024-02-21T14:31:36;24.20;36.10
42135;DHT22;28312;43.460;11.810;2024-02-21T14:35:40;24.10;35.80
42135;DHT22;28312;43.460;11.810;2024-02-21T14:39:45;23.80;36.00
42135;DHT22;28312;43.460;11.810;2024-02-21T14:43:48;23.70;36.30
42135;DHT22;28312;43.460;11.810;2024-02-21T14:47:52;23.70;36.10
42135;DHT22;28312;43.460;11.810;2024-02-21T14:51:55;23.50;36.10
42135;DHT22;28312;43.460;11.810;2024-02-21T14:56:00;23.50;36.00
42135;DHT22;28312;43.460;11.810;2024-02-21T15:00:07;23.10;35.70
42135;DHT22;28312;43.460;11.810;2024-02-21T15:04:11;22.80;35.80
42135;DHT22;28312;43.460;11.810;2024-02-21T15:08:16;22.60;36.00
42135;DHT22;28312;43.460;11.810;2024-02-21T15:12:21;22.60;35.80
42135;DHT22;28312;43.460;11.810;2024-02-21T15:16:26;22.20;36.00
42135;DHT22;28312;43.460;11.810;2024-02-21T15:20:30;22.10;36.10
42135;DHT22;28312;43.460;11.810;2024-02-21T15:24:34;21.70;36.00
42135;DHT22;28312;43.460;11.810;2024-02-21T15:28:37;21.40;36.10
42135;DHT22;28312;43.460;11.810;2024-02-21T15:32:41;21.10;36.30
42135;DHT22;28312;43.460;11.810;2024-02-21T15:36:48;20.80;36.40
42135;DHT22;28312;43.460;11.810;2024-02-21T15:40:52;20.70;36.50
42135;DHT22;28312;43.460;11.810;2024-02-21T15:44:56;20.60;36.50
42135;DHT22;28312;43.460;11.810;2024-02-21T15:49:00;20.50;36.80
42135;DHT22;28312;43.460;11.810;2024-02-21T15:53:04;20.40;36.90
42135;DHT22;28312;43.460;11.810;2024-02-21T15:57:08;20.30;36.80
42135;DHT22;28312;43.460;11.810;2024-02-21T16:01:11;20.10;36.90
42135;DHT22;28312;43.460;11.810;2024-02-21T16:05:18;19.80;36.70
42135;DHT22;28312;43.460;11.810;2024-02-21T16:09:22;19.50;36.80
42135;DHT22;28312;43.460;11.810;2024-02-21T16:13:26;19.10;36.90
42135;DHT22;28312;43.460;11.810;2024-02-21T16:17:30;18.80;37.00
42135;DHT22;28312;43.460;11.810;2024-02-21T16:21:34;18.30;37.10
42135;DHT22;28312;43.460;11.810;2024-02-21T16:25:41;17.90;37.30
42135;DHT22;28312;43.460;11.810;2024-02-21T16:29:45;17.60;37.40
42135;DHT22;28312;43.460;11.810;2024-02-21T16:33:49;17.20;37.50
42135;DHT22;28312;43.460;11.810;2024-02-21T16:37:53;16.90;37.60
42135;DHT22;28312;43.460;11.810;2024-02-21T16:41:56;16.60;37.80
42135;DHT22;28312;43.460;11.810;2024-02-21T16:46:03;16.30;37.90
42135;DHT22;28312;43.460;11.810;2024-02-21T16:50:08;16.00;38.00
42135;DHT22;28312;43.460;11.810;2024-02-21T16:54:11;15.80;38.10
42135;DHT22;28312;43.460;11.810;2024-02-21T16:58:15;15.60;38.30
42135;DHT22;28312;43.460;11.810;2024-02-21T17:02:19;15.30;38.40
42135;DHT22;28312;43.460;11.810;2024-02-21T17:06:23;15.20;38.50
42135;DHT22;28312;43.460;11.810;2024-02-21T17:10:26;15.00;38.50
42135;DHT22;28312;43.460;11.810;2024-02-21T17:14:30;14.80;38.50
42135;DHT22;28312;43.460;11.810;2024-02-21T17:18:34;14.70;38.60
42135;DHT22;28312;43.460;11.810;2024-02-21T17:22:37;14.50;38.80
42135;DHT22;28312;43.460;11.810;2024-02-21T17:26:41;14.40;38.90
42135;DHT22;28312;43.460;11.810;2024-02-21T17:30:45;14.30;39.00
42135;DHT22;28312;43.460;11.810;2024-02-21T17:34:48;14.20;39.10
42135;DHT22;28312;43.460;11.810;2024-02-21T17:38:52;13.90;39.20
42135;DHT22;28312;43.460;11.810;2024-02-21T17:42:56;13.70;39.40
42135;DHT22;28312;43.460;11.810;2024-02-21T17:46:59;13.60;39.60
42135;DHT22;28312;43.460;11.810;2024-02-21T17:51:03;13.40;39.80
42135;DHT22;28312;43.460;11.810;2024-02-21T17:55:07;13.30;40.00
42135;DHT22;28312;43.460;11.810;2024-02-21T17:59:10;13.20;40.30
42135;DHT22;28312;43.460;11.810;2024-02-21T18:03:16;13.10;40.40
42135;DHT22;28312;43.460;11.810;2024-02-21T18:07:20;12.90;40.70
42135;DHT22;28312;43.460;11.810;2024-02-21T18:11:27;12.80;40.90
42135;DHT22;28312;43.460;11.810;2024-02-21T18:15:31;12.70;40.90
42135;DHT22;28312;43.460;11.810;2024-02-21T18:19:35;12.40;41.00
42135;DHT22;28312;43.460;11.810;2024-02-21T18:23:38;12.20;41.00
42135;DHT22;28312;43.460;11.810;2024-02-21T18:27:43;11.70;41.30
42135;DHT22;28312;43.460;11.810;2024-02-21T18:31:47;11.40;41.50
42135;DHT22;28312;43.460;11.810;2024-02-21T18:35:51;11.10;41.60
42135;DHT22;28312;43.460;11.810;2024-02-21T18:39:55;10.90;41.70
42135;DHT22;28312;43.460;11.810;2024-02-21T18:43:58;10.70;41.70
42135;DHT22;28312;43.460;11.810;2024-02-21T18:48:04;10.30;41.90
42135;DHT22;28312;43.460;11.810;2024-02-21T18:52:08;10.10;42.00
42135;DHT22;28312;43.460;11.810;2024-02-21T18:56:11;9.70;42.40
42135;DHT22;28312;43.460;11.810;2024-02-21T19:00:18;9.50;42.70
42135;DHT22;28312;43.460;11.810;2024-02-21T19:04:26;9.40;43.00
42135;DHT22;28312;43.460;11.810;2024-02-21T19:08:30;9.40;43.20
42135;DHT22;28312;43.460;11.810;2024-02-21T19:12:33;9.30;43.20
42135;DHT22;28312;43.460;11.810;2024-02-21T19:16:37;9.20;43.40
42135;DHT22;28312;43.460;11.810;2024-02-21T19:20:40;9.10;43.60
42135;DHT22;28312;43.460;11.810;2024-02-21T19:24:44;8.90;43.60
42135;DHT22;28312;43.460;11.810;2024-02-21T19:28:48;8.70;43.80
42135;DHT22;28312;43.460;11.810;2024-02-21T19:32:53;8.60;43.90
42135;DHT22;28312;43.460;11.810;2024-02-21T19:36:56;8.40;43.90
42135;DHT22;28312;43.460;11.810;2024-02-21T19:41:00;8.20;44.20
42135;DHT22;28312;43.460;11.810;2024-02-21T19:45:05;8.00;44.50
42135;DHT22;28312;43.460;11.810;2024-02-21T19:49:10;8.00;44.70
42135;DHT22;28312;43.460;11.810;2024-02-21T19:53:16;8.10;44.70
42135;DHT22;28312;43.460;11.810;2024-02-21T19:57:23;8.10;44.70
42135;DHT22;28312;43.460;11.810;2024-02-21T20:01:28;7.90;44.50
42135;DHT22;28312;43.460;11.810;2024-02-21T20:05:31;7.70;44.80
42135;DHT22;28312;43.460;11.810;2024-02-21T20:09:41;7.50;44.90
42135;DHT22;28312;43.460;11.810;2024-02-21T20:13:45;7.30;45.20
42135;DHT22;28312;43.460;11.810;2024-02-21T20:17:49;7.20;45.10
42135;DHT22;28312;43.460;11.810;2024-02-21T20:21:52;7.20;45.20
42135;DHT22;28312;43.460;11.810;2024-02-21T20:25:56;7.00;45.50
42135;DHT22;28312;43.460;11.810;2024-02-21T20:30:00;6.90;45.70
42135;DHT22;28312;43.460;11.810;2024-02-21T20:34:05;6.70;45.80
42135;DHT22;28312;43.460;11.810;2024-02-21T20:38:08;6.50;46.00
42135;DHT22;28312;43.460;11.810;2024-02-21T20:42:15;6.40;46.10
42135;DHT22;28312;43.460;11.810;2024-02-21T20:46:22;6.20;46.10
42135;DHT22;28312;43.460;11.810;2024-02-21T20:50:26;6.10;46.20
42135;DHT22;28312;43.460;11.810;2024-02-21T20:54:32;5.90;46.30
42135;DHT22;28312;43.460;11.810;2024-02-21T20:58:37;5.80;46.50
42135;DHT22;28312;43.460;11.810;2024-02-21T21:02:41;5.70;46.50
42135;DHT22;28312;43.460;11.810;2024-02-21T21:06:47;5.50;46.50
42135;DHT22;28312;43.460;11.810;2024-02-21T21:10:50;5.30;46.60
42135;DHT22;28312;43.460;11.810;2024-02-21T21:14:55;5.20;46.80
42135;DHT22;28312;43.460;11.810;2024-02-21T21:18:59;5.00;47.00
42135;DHT22;28312;43.460;11.810;2024-02-21T21:23:04;4.90;47.10
42135;DHT22;28312;43.460;11.810;2024-02-21T21:27:08;4.90;47.30
42135;DHT22;28312;43.460;11.810;2024-02-21T21:31:18;5.00;47.20
42135;DHT22;28312;43.460;11.810;2024-02-21T21:35:24;4.90;47.30
42135;DHT22;28312;43.460;11.810;2024-02-21T21:39:29;4.90;47.30
42135;DHT22;28312;43.460;11.810;2024-02-21T21:43:33;4.80;47.40
42135;DHT22;28312;43.460;11.810;2024-02-21T21:47:36;4.70;47.60
42135;DHT22;28312;43.460;11.810;2024-02-21T21:51:40;4.70;47.80
42135;DHT22;28312;43.460;11.810;2024-02-21T21:55:43;4.60;47.90
42135;DHT22;28312;43.460;11.810;2024-02-21T21:59:47;4.60;48.10
42135;DHT22;28312;43.460;11.810;2024-02-21T22:03:51;4.60;48.10
42135;DHT22;28312;43.460;11.810;2024-02-21T22:07:54;4.60;48.20
42135;DHT22;28312;43.460;11.810;2024-02-21T22:11:59;4.50;48.20
42135;DHT22;28312;43.460;11.810;2024-02-21T22:16:04;4.50;48.20
42135;DHT22;28312;43.460;11.810;2024-02-21T22:20:09;4.40;48.30
42135;DHT22;28312;43.460;11.810;2024-02-21T22:24:13;4.30;48.40
42135;DHT22;28312;43.460;11.810;2024-02-21T22:28:19;4.30;48.60
42135;DHT22;28312;43.460;11.810;2024-02-21T22:32:23;4.20;48.50
42135;DHT22;28312;43.460;11.810;2024-02-21T22:36:28;4.10;48.50
42135;DHT22;28312;43.460;11.810;2024-02-21T22:40:32;4.00;48.60
42135;DHT22;28312;43.460;11.810;2024-02-21T22:44:40;3.90;48.70
42135;DHT22;28312;43.460;11.810;2024-02-21T22:48:46;3.80;48.90
42135;DHT22;28312;43.460;11.810;2024-02-21T22:52:51;3.80;48.80
42135;DHT22;28312;43.460;11.810;2024-02-21T22:56:55;3.70;48.90
42135;DHT22;28312;43.460;11.810;2024-02-21T23:00:59;3.70;49.10
42135;DHT22;28312;43.460;11.810;2024-02-21T23:05:03;3.70;49.10
42135;DHT22;28312;43.460;11.810;2024-02-21T23:09:09;3.60;49.10
42135;DHT22;28312;43.460;11.810;2024-02-21T23:13:12;3.60;49.10
42135;DHT22;28312;43.460;11.810;2024-02-21T23:17:16;3.60;49.20
42135;DHT22;28312;43.460;11.810;2024-02-21T23:21:20;3.60;49.20
42135;DHT22;28312;43.460;11.810;2024-02-21T23:25:23;3.50;49.20
42135;DHT22;28312;43.460;11.810;2024-02-21T23:29:28;3.40;49.30
42135;DHT22;28312;43.460;11.810;2024-02-21T23:33:32;3.30;49.20
42135;DHT22;28312;43.460;11.810;2024-02-21T23:37:37;3.20;49.40
42135;DHT22;28312;43.460;11.810;2024-02-21T23:41:42;3.20;49.50
42135;DHT22;28312;43.460;11.810;2024-02-21T23:45:46;3.10;49.60
42135;DHT22;28312;43.460;11.810;2024-02-21T23:49:49;3.00;49.70
42135;DHT22;28312;43.460;11.810;2024-02-21T23:53:54;3.10;49.80
42135;DHT22;28312;43.460;11.810;2024-02-21T23:57:59;3.00;49.90
